Corvera, Spain
Current Conditions -  °F | °C
As of 6:30 AM on Friday 31 Oct 2014 (Local Time) from LEXJ Reporting Station
Clear Clear  
Wind Chill: 75°   Ceiling: Unl
Heat Index: 75°   Visibility: 6mi
Dew Point: 45°   Wind: 8mph
Humidity: 34%   Direction: 210°SSW
Pressure: 30.03"   Gusts: NA
Location:  43.27°N, 3.95°W
Report Text: LEXJ 310530Z 21007KT 140V260 CAVOK 24/07 Q1017
Loading
Personal Weather Stations






























Interactive Weather Map
Tropical Storm Tracking
New forecast layout! Learn more

10-Day Weather Forecast

Advertisements
Track Severe Weather on mobile